Flight Track Log - Related Links

Times and Time Zones

All times are in EDT time to prevent confusion due to time zone crossing. See the SWA183 flight status page for this flight to view local times or setup timezone preferences in your user account.

Time Position Orientation Groundspeed Altitude Reporting Facility
EDT Latitude Longitude Course Direction KTS MPH feet Rate Location/Type
Fri 12:30:37 PM 30.0714 -90.2283 13° North 209 241 3,700  Level Houston Center
Fri 12:31:13 PM 30.1061 -90.2200 12° North 194 223 5,300 2,388 Climbing Houston Center
Fri 12:32:15 PM 30.1081 -90.1467 88° East 248 285 7,600 2,661 Climbing Houston Center
Fri 12:33:17 PM 30.0914 -90.0581 102° East 276 318 10,800 3,000 Climbing Houston Center
Fri 12:34:19 PM 30.0714 -89.9550 103° East 323 372 13,800 3,216 Climbing Houston Center
Fri 12:35:22 PM 30.0553 -89.8192 98° East 375 432 17,500 3,024 Climbing Houston Center
Fri 12:36:24 PM 30.0861 -89.7056 73° East 379 436 20,100 2,468 Climbing Houston Center
Fri 12:37:26 PM 30.1111 -89.5842 77° East 395 455 22,600 2,323 Climbing Houston Center
Fri 12:38:28 PM 30.1353 -89.4597 77° East 403 464 24,900 1,935 Climbing Houston Center
Fri 12:39:30 PM 30.1692 -89.3322 73° East 415 478 26,600 1,935 Climbing Houston Center
Fri 12:40:32 PM 30.2111 -89.1669 74° East 446 513 28,900 1,935 Climbing Houston Center
Fri 12:41:34 PM 30.2464 -89.0269 74° East 454 522 30,600 1,645 Climbing Houston Center
Fri 12:42:36 PM 30.2842 -88.8797 73° East 469 540 32,300 1,839 Climbing Houston Center
Fri 12:43:38 PM 30.3208 -88.7342 74° East 473 544 34,400 1,824 Climbing Houston Center
Fri 12:44:41 PM 30.3578 -88.5889 74° East 471 542 36,100 1,872 Climbing Houston Center
Fri 12:45:43 PM 30.4011 -88.4161 74° East 468 539 38,300 1,548 Climbing Houston Center
Fri 12:46:45 PM 30.4369 -88.2744 74° East 465 535 39,300 968 Climbing Houston Center
Fri 12:47:47 PM 30.4733 -88.1306 74° East 467 537 40,300 823 Climbing Houston Center
Fri 12:48:49 PM 30.5086 -87.9881 74° East 465 535 41,000 339 Climbing Houston Center
Fri 12:49:51 PM 30.5431 -87.8467 74° East 462 532 41,000  Level Houston Center
Fri 12:50:53 PM 30.5481 -87.6703 88° East 462 532 41,000  Level Houston Center
Fri 12:51:48 PM 30.5508 -87.5500 88° East 446 513 41,000  Level Jacksonville Center
Fri 12:52:48 PM 30.5522 -87.3983 89° East 457 526 41,000  Level Jacksonville Center
Fri 12:53:48 PM 30.5531 -87.2489 90° East 463 533 41,000  Level Jacksonville Center
Fri 12:54:48 PM 30.5583 -87.0994 88° East 456 525 41,000  Level Jacksonville Center
Fri 12:55:48 PM 30.5572 -86.9378 90° East 456 525 41,000  Level Jacksonville Center
Fri 12:56:48 PM 30.5597 -86.7883 89° East 456 525 41,000  Level Jacksonville Center
Fri 12:57:48 PM 30.5600 -86.6414 90° East 456 525 41,000  Level Jacksonville Center
Fri 12:58:48 PM 30.5622 -86.4967 89° East 456 525 41,000  Level Jacksonville Center
Fri 12:59:48 PM 30.5619 -86.3494 90° East 456 525 41,000  Level Jacksonville Center
Fri 01:00:48 PM 30.5617 -86.2000 90° East 456 525 41,000  Level Jacksonville Center
Fri 01:01:48 PM 30.5633 -86.0553 89° East 456 525 41,000 -500 Level Jacksonville Center
Fri 01:02:48 PM 30.5628 -85.9058 90° East 456 525 40,000 -950 Descending Jacksonville Center
Fri 01:03:48 PM 30.5642 -85.7586 89° East 456 525 39,100 -496 Descending Jacksonville Center
Fri 01:04:49 PM 30.5633 -85.6042 90° East 461 531 39,000 -50 Descending Jacksonville Center
Fri 01:05:48 PM 30.5619 -85.4714 91° East 461 531 39,000 -403 Level Jacksonville Center
Fri 01:06:48 PM 30.5628 -85.3194 90° East 461 531 38,200 -900 Descending Jacksonville Center
Fri 01:07:48 PM 30.5614 -85.1722 91° East 461 531 37,200 -950 Descending Jacksonville Center
Fri 01:08:48 PM 30.5639 -85.0203 89° East 461 531 36,300 -950 Descending Jacksonville Center
Fri 01:09:48 PM 30.5664 -84.8686 89° East 461 531 35,300 -650 Descending Jacksonville Center
Fri 01:10:48 PM 30.5667 -84.7142 90° East 467 537 35,000 -200 Descending Jacksonville Center
Fri 01:11:48 PM 30.5731 -84.5597 87° East 467 537 34,900 -500 Descending Jacksonville Center
Fri 01:12:48 PM 30.5497 -84.4194 101° East 467 537 34,000 -1,000 Descending Jacksonville Center
Fri 01:13:48 PM 30.4442 -84.3408 147° Southeast 409 471 32,900 -1,050 Descending Jacksonville Center
Fri 01:14:48 PM 30.3406 -84.2694 149° Southeast 420 483 31,900 -992 Descending Jacksonville Center
Fri 01:15:49 PM 30.2347 -84.1933 148° Southeast 427 491 30,900 -1,050 Descending Jacksonville Center
Fri 01:16:48 PM 30.1269 -84.1150 148° Southeast 427 491 29,800 -1,059 Descending Jacksonville Center
Fri 01:17:48 PM 30.0253 -84.0442 149° Southeast 427 491 28,800 -843 Descending Jacksonville Center
Fri 01:18:49 PM 29.9197 -83.9661 147° Southeast 427 491 28,100 -850 Descending Jacksonville Center
Fri 01:19:48 PM 29.8094 -83.8883 149° Southeast 446 513 27,100 -555 Descending Jacksonville Center
Fri 01:20:48 PM 29.6953 -83.8156 151° Southeast 459 528 27,000 -50 Descending Jacksonville Center
Fri 01:21:48 PM 29.5850 -83.7475 152° Southeast 464 534 27,000  Level Jacksonville Center
Fri 01:22:48 PM 29.4708 -83.6869 155° Southeast 451 519 27,000 -198 Level Jacksonville Center
Fri 01:23:49 PM 29.3583 -83.6169 152° Southeast 445 512 26,600 -694 Descending Jacksonville Center
Fri 01:24:49 PM 29.2503 -83.5447 150° Southeast 450 518 25,600 -1,050 Descending Jacksonville Center
Fri 01:25:49 PM 29.1419 -83.4728 150° Southeast 450 518 24,500 -1,059 Descending Jacksonville Center
Fri 01:26:48 PM 29.0400 -83.4056 150° Southeast 445 512 23,500 -1,210 Descending Jacksonville Center
Fri 01:27:48 PM 28.9525 -83.3411 147° Southeast 434 499 22,100 -1,785 Descending Jacksonville Center
Fri 01:28:49 PM 28.8631 -83.2672 144° Southeast 419 482 19,900 -2,071 Descending Jacksonville Center
Fri 01:31:05 PM 28.6333 -83.1333 153° Southeast 380 437 15,300 -2,147 Descending Tampa TRACON
Fri 01:31:59 PM 28.5500 -83.0833 152° Southeast 371 427 13,100 -2,222 Descending Tampa TRACON
Fri 01:32:53 PM 28.4667 -83.0333 152° Southeast 353 406 11,300 -1,400 Descending Tampa TRACON
Fri 01:33:59 PM 28.3833 -83.0000 161° South 311 358 10,300 -1,136 Descending Tampa TRACON
Fri 01:35:05 PM 28.3000 -82.9667 161° South 286 329 8,800 -1,500 Descending Tampa TRACON
Fri 01:36:11 PM 28.2167 -82.9500 170° South 282 325 7,000 -1,611 Descending Tampa TRACON
Fri 01:36:53 PM 28.1667 -82.9333 164° South 281 323 5,900 -1,456 Descending Tampa TRACON
Fri 01:37:54 PM 28.0833 -82.9000 161° South 275 316 4,500 -905 Descending Tampa TRACON
Fri 01:38:59 PM 28.0167 -82.8667 156° South 262 302 4,000 -240 Descending Tampa TRACON
Fri 01:39:59 PM 27.9500 -82.8500 168° South 238 274 4,000  Level Tampa TRACON
Fri 01:41:00 PM 27.9000 -82.8000 139° Southeast 229 264 4,000 -198 Level Tampa TRACON
Fri 01:42:00 PM 27.8667 -82.7500 127° Southeast 228 262 3,600 -600 Descending Tampa TRACON
Fri 01:43:00 PM 27.8667 -82.6667 90° East 222 255 2,800 -550 Descending Tampa TRACON
Fri 01:44:00 PM 27.8667 -82.6000 90° East 209 241 2,500 -500 Descending Tampa TRACON
Fri 01:45:00 PM 27.9000 -82.5500 53° Northeast 179 206 1,800 -950 Descending Tampa TRACON
Fri 01:46:00 PM 27.9333 -82.5500 360° North 146 168 600 -1,200 Descending Tampa TRACON
Fri 01:47:00 PM 27.9755 -82.5332 354° North  Level Estimated
Fri 01:54:00 PM 27.9755 -82.5332 161° South  Level Estimated
Fri 01:55:00 PM 27.9755 -82.5332 161° South  Level Estimated
Fri 01:56:00 PM 27.9755 -82.5332 161° South  Level Estimated

Login

Don't have an account? Register now (free) for customized features, flight alerts, and more!